createdAt,value
2023-07-03T00:00:54.704Z,9.6
2023-07-03T00:01:59.461Z,9.9
2023-07-03T00:03:04.228Z,9.3
2023-07-03T00:04:11.373Z,9.5
2023-07-03T00:05:16.948Z,10.2
2023-07-03T00:06:21.876Z,9.8
2023-07-03T00:07:26.913Z,9.8
2023-07-03T00:08:31.680Z,11.3
2023-07-03T00:09:36.523Z,10.7
2023-07-03T00:10:41.542Z,8.9
2023-07-03T00:11:46.499Z,9.7
2023-07-03T00:12:51.400Z,9.9
2023-07-03T00:13:56.222Z,9.5
2023-07-03T00:15:00.975Z,9.8
2023-07-03T00:16:05.931Z,11.2
2023-07-03T00:17:10.614Z,9.3
2023-07-03T00:18:15.616Z,10.2
2023-07-03T00:19:23.079Z,9.1
2023-07-03T00:20:28.645Z,11.6
2023-07-03T00:21:33.421Z,10.1
2023-07-03T00:22:39.371Z,9.8
2023-07-03T00:23:44.368Z,9.6
2023-07-03T00:24:49.118Z,11.7
2023-07-03T00:25:54.908Z,11.9
2023-07-03T00:26:59.750Z,10.3
2023-07-03T00:28:04.500Z,11.2
2023-07-03T00:29:09.243Z,10.6
2023-07-03T00:30:14.238Z,10.6
2023-07-03T00:31:19.303Z,11
2023-07-03T00:32:25.017Z,10.9
2023-07-03T00:33:29.750Z,10.8
2023-07-03T00:34:34.759Z,12.4
2023-07-03T00:35:39.579Z,12
2023-07-03T00:36:44.378Z,12.7
2023-07-03T00:37:49.272Z,12.2
2023-07-03T00:38:54.147Z,12.6
2023-07-03T00:39:59.024Z,12
2023-07-03T00:41:03.947Z,12.4
2023-07-03T00:42:08.853Z,11.8
2023-07-03T00:43:13.620Z,11.3
2023-07-03T00:44:18.406Z,12.6
2023-07-03T00:45:23.263Z,12.2
2023-07-03T00:46:28.182Z,14.1
2023-07-03T00:47:32.835Z,14.4
2023-07-03T00:48:37.737Z,14.1
2023-07-03T00:49:42.521Z,12.6
2023-07-03T00:50:47.249Z,11.6
2023-07-03T00:51:52.118Z,11.3
2023-07-03T00:52:56.950Z,12
2023-07-03T00:54:03.241Z,11.6
2023-07-03T00:55:09.752Z,11.4
2023-07-03T00:56:14.587Z,10.2
2023-07-03T00:57:19.365Z,10.6
2023-07-03T00:58:24.189Z,10.3
2023-07-03T00:59:29.003Z,10.9
2023-07-03T01:00:33.796Z,12.2
2023-07-03T01:01:38.685Z,11
2023-07-03T01:02:43.503Z,14.5
2023-07-03T01:03:53.302Z,11.5
2023-07-03T01:04:58.165Z,8.9
2023-07-03T01:06:02.999Z,12
2023-07-03T01:07:08.087Z,13.1
2023-07-03T01:08:18.724Z,9.6
2023-07-03T01:09:23.444Z,11.3
2023-07-03T01:10:28.242Z,8.8
2023-07-03T01:11:35.620Z,9.2
2023-07-03T01:12:41.480Z,9.2
2023-07-03T01:13:46.343Z,7.8
2023-07-03T01:14:51.102Z,9.5
2023-07-03T01:15:55.877Z,11.3
2023-07-03T01:17:00.781Z,9.6
2023-07-03T01:18:06.899Z,9.3
2023-07-03T01:19:12.709Z,9.3
2023-07-03T01:20:17.508Z,9.3
2023-07-03T01:21:22.271Z,12.4
2023-07-03T01:22:27.014Z,10.4
2023-07-03T01:23:36.660Z,8.7
2023-07-03T01:24:46.423Z,8.3
2023-07-03T01:25:56.199Z,9.3
2023-07-03T01:27:02.131Z,7.4
2023-07-03T01:28:06.982Z,9.1
2023-07-03T01:29:11.839Z,8.9
2023-07-03T01:30:16.614Z,8.5
2023-07-03T01:31:21.447Z,8.4
2023-07-03T01:32:26.370Z,8.1
2023-07-03T01:33:32.324Z,10.3
2023-07-03T01:34:36.809Z,8.4
2023-07-03T01:35:41.814Z,8.1
2023-07-03T01:36:46.559Z,8.2
2023-07-03T01:37:52.311Z,8.7
2023-07-03T01:38:56.964Z,8
2023-07-03T01:40:01.637Z,9
2023-07-03T01:41:08.441Z,8.3
2023-07-03T01:42:13.198Z,8
2023-07-03T01:43:19.031Z,7.1
2023-07-03T01:44:24.861Z,8
2023-07-03T01:45:29.674Z,9.6
2023-07-03T01:46:35.496Z,8.6
2023-07-03T01:47:40.321Z,8
2023-07-03T01:48:44.995Z,7.9
2023-07-03T01:49:49.934Z,9.2
2023-07-03T01:50:54.668Z,8.8
2023-07-03T01:51:59.535Z,7.1
2023-07-03T01:53:14.293Z,7.5
2023-07-03T01:54:22.790Z,9.5
2023-07-03T01:55:28.622Z,8.1
2023-07-03T01:56:36.098Z,6.6
2023-07-03T01:57:40.859Z,7.3
2023-07-03T01:58:48.546Z,8.5
2023-07-03T01:59:58.307Z,7.7
2023-07-03T02:01:03.078Z,9.3
2023-07-03T02:02:10.655Z,6.6
2023-07-03T02:03:15.641Z,6.9
2023-07-03T02:04:25.391Z,7.4
2023-07-03T02:05:42.385Z,8.7
2023-07-03T02:06:47.243Z,7.9
2023-07-03T02:07:53.153Z,7.8
2023-07-03T02:08:59.008Z,8.2
2023-07-03T02:10:05.375Z,7.6
2023-07-03T02:11:11.255Z,7
2023-07-03T02:12:17.200Z,8.7
2023-07-03T02:13:21.924Z,8.3
2023-07-03T02:14:27.592Z,7.7
2023-07-03T02:15:32.411Z,10.3
2023-07-03T02:16:37.278Z,7.2
2023-07-03T02:17:42.096Z,7.7
2023-07-03T02:18:46.908Z,8.2
2023-07-03T02:19:51.807Z,8.5
2023-07-03T02:20:56.598Z,9.2
2023-07-03T02:22:01.376Z,7.5
2023-07-03T02:23:06.423Z,10.3
2023-07-03T02:24:11.092Z,7.7
2023-07-03T02:25:15.860Z,8.1
2023-07-03T02:26:20.788Z,8.2
2023-07-03T02:27:25.549Z,7.6
2023-07-03T02:28:30.305Z,8.8
2023-07-03T02:29:35.143Z,7.8
2023-07-03T02:30:39.869Z,8
2023-07-03T02:31:44.635Z,7.9
2023-07-03T02:32:49.405Z,9.4
2023-07-03T02:33:54.188Z,9.1
2023-07-03T02:34:58.995Z,8
2023-07-03T02:36:03.927Z,8.8
2023-07-03T02:37:09.996Z,7.8
2023-07-03T02:38:15.793Z,12.4
2023-07-03T02:39:21.700Z,7.9
2023-07-03T02:40:26.494Z,10.8
2023-07-03T02:41:31.255Z,8.1
2023-07-03T02:42:36.137Z,7
2023-07-03T02:43:40.912Z,8.3
2023-07-03T02:44:46.757Z,8.6
2023-07-03T02:45:51.687Z,8.5
2023-07-03T02:46:56.265Z,7.3
2023-07-03T02:48:01.055Z,7.4
2023-07-03T02:49:06.101Z,7.5
2023-07-03T02:50:11.141Z,6.5
2023-07-03T02:51:15.893Z,8.9
2023-07-03T02:52:20.626Z,7.9
2023-07-03T02:53:25.344Z,8.7
2023-07-03T02:54:30.140Z,7
2023-07-03T02:55:35.695Z,8.7
2023-07-03T02:56:40.426Z,7.2
2023-07-03T02:57:45.245Z,7.2
2023-07-03T02:58:50.004Z,6.4
2023-07-03T02:59:54.751Z,7.1
2023-07-03T03:00:59.753Z,7.4
2023-07-03T03:02:04.561Z,8.5
2023-07-03T03:03:11.466Z,10
2023-07-03T03:04:16.316Z,8.1
2023-07-03T03:05:21.076Z,9.4
2023-07-03T03:06:25.817Z,8.7
2023-07-03T03:07:30.675Z,8.8
2023-07-03T03:08:36.292Z,8.5
2023-07-03T03:09:41.018Z,8.3
2023-07-03T03:10:45.930Z,9.2
2023-07-03T03:11:51.752Z,7.5
2023-07-03T03:12:56.629Z,8.7
2023-07-03T03:14:01.359Z,9.3
2023-07-03T03:15:06.133Z,9.4
2023-07-03T03:16:11.079Z,7.7
2023-07-03T03:17:17.035Z,8.3
2023-07-03T03:18:21.883Z,7.8
2023-07-03T03:19:26.629Z,7.8
2023-07-03T03:20:32.931Z,6.6
2023-07-03T03:21:37.662Z,9.2
2023-07-03T03:22:43.808Z,9.6
2023-07-03T03:23:48.629Z,8.4
2023-07-03T03:24:53.389Z,8.3
2023-07-03T03:25:58.092Z,8.6
2023-07-03T03:27:03.042Z,7.1
2023-07-03T03:28:07.963Z,6.8
2023-07-03T03:29:12.734Z,8
2023-07-03T03:30:17.475Z,7.8
2023-07-03T03:31:22.449Z,7.3
2023-07-03T03:32:27.081Z,7.7
2023-07-03T03:33:31.772Z,9.9
2023-07-03T03:34:37.988Z,9.9
2023-07-03T03:35:42.666Z,7.7
2023-07-03T03:36:49.399Z,9.1
2023-07-03T03:37:54.210Z,8
2023-07-03T03:38:58.988Z,6.2
2023-07-03T03:40:03.812Z,8.8
2023-07-03T03:41:08.845Z,7.7
2023-07-03T03:42:13.617Z,9
2023-07-03T03:43:18.399Z,7.6
2023-07-03T03:44:23.195Z,9.3
2023-07-03T03:45:27.920Z,10.1
2023-07-03T03:46:32.850Z,9
2023-07-03T03:47:37.761Z,7.8
2023-07-03T03:48:42.609Z,8.3
2023-07-03T03:49:47.314Z,8.9
2023-07-03T03:50:52.039Z,8.7
2023-07-03T03:51:56.792Z,8.9
2023-07-03T03:53:01.827Z,9.2
2023-07-03T03:54:06.597Z,7.5
2023-07-03T03:55:11.395Z,7.8
2023-07-03T03:56:16.178Z,9.3
2023-07-03T03:57:21.736Z,8.5
2023-07-03T03:58:26.465Z,8
2023-07-03T03:59:31.238Z,8.8
2023-07-03T04:00:36.149Z,10.3
2023-07-03T04:01:40.973Z,9.6
2023-07-03T04:02:46.389Z,8
2023-07-03T04:03:51.414Z,9.1
2023-07-03T04:04:56.276Z,9.3
2023-07-03T04:06:00.971Z,11.1
2023-07-03T04:07:06.679Z,10.7
2023-07-03T04:08:11.404Z,9.2
2023-07-03T04:09:16.232Z,10.2
2023-07-03T04:10:21.008Z,9.4
2023-07-03T04:11:26.623Z,14.1
2023-07-03T04:12:31.340Z,12
2023-07-03T04:13:36.159Z,11.4
2023-07-03T04:14:41.709Z,11.7
2023-07-03T04:15:48.009Z,10.1
2023-07-03T04:16:52.412Z,10.7
2023-07-03T04:17:56.990Z,12.4
2023-07-03T04:19:01.786Z,11.6
2023-07-03T04:20:06.560Z,14.1
2023-07-03T04:21:16.077Z,9.2
2023-07-03T04:22:19.372Z,10.2
2023-07-03T04:23:24.159Z,10.8
2023-07-03T04:24:28.922Z,12
2023-07-03T04:25:34.730Z,9.1
2023-07-03T04:26:41.752Z,8
2023-07-03T04:27:46.540Z,10
2023-07-03T04:28:51.446Z,10.8
2023-07-03T04:29:56.647Z,9.8
2023-07-03T04:31:01.646Z,9.6
2023-07-03T04:32:09.148Z,9.4
2023-07-03T04:33:14.923Z,9.1
2023-07-03T04:34:19.790Z,8.3
2023-07-03T04:35:24.893Z,10.8
2023-07-03T04:36:29.819Z,9.8
2023-07-03T04:37:34.712Z,11.6
2023-07-03T04:38:39.518Z,10.9
2023-07-03T04:39:44.267Z,9.5
2023-07-03T04:40:49.116Z,11.3
2023-07-03T04:41:54.078Z,11.7
2023-07-03T04:42:59.735Z,11.8
2023-07-03T04:44:04.641Z,12.9
2023-07-03T04:45:09.404Z,12.3
2023-07-03T04:46:14.226Z,8
2023-07-03T04:47:19.048Z,9.4
2023-07-03T04:48:24.586Z,9
2023-07-03T04:49:29.352Z,8.3
2023-07-03T04:50:34.187Z,6.9
2023-07-03T04:51:38.893Z,6.5
2023-07-03T04:52:43.691Z,5.8
2023-07-03T04:53:48.407Z,9.1
2023-07-03T04:54:53.290Z,6.6
2023-07-03T04:55:58.240Z,6.1
2023-07-03T04:57:02.960Z,8.3
2023-07-03T04:58:08.011Z,8.7
2023-07-03T04:59:12.763Z,6.8
2023-07-03T05:00:17.578Z,6.6
2023-07-03T05:01:22.550Z,7
2023-07-03T05:02:27.261Z,7.9
2023-07-03T05:03:32.196Z,6.2
2023-07-03T05:04:37.021Z,10.2
2023-07-03T05:05:41.828Z,7
2023-07-03T05:06:46.533Z,6.3
2023-07-03T05:07:51.382Z,6.6
2023-07-03T05:08:57.115Z,5.9
2023-07-03T05:10:01.974Z,7.4
2023-07-03T05:11:06.897Z,4.9
2023-07-03T05:12:11.669Z,6.3
2023-07-03T05:13:17.546Z,6.1
2023-07-03T05:14:22.409Z,5.5
2023-07-03T05:15:27.183Z,8.5
2023-07-03T05:16:32.038Z,6.9
2023-07-03T05:17:36.889Z,6.7
2023-07-03T05:18:41.702Z,8.7
2023-07-03T05:19:46.414Z,5.8
2023-07-03T05:20:53.363Z,7.1
2023-07-03T05:21:58.085Z,6.2
2023-07-03T05:23:02.994Z,5.7
2023-07-03T05:24:07.759Z,5.7
2023-07-03T05:25:12.604Z,7.1
2023-07-03T05:26:18.415Z,6
2023-07-03T05:27:23.539Z,7.4
2023-07-03T05:28:28.337Z,7.5
2023-07-03T05:29:33.079Z,6.8
2023-07-03T05:30:39.040Z,8.7
2023-07-03T05:31:43.809Z,6.3
2023-07-03T05:32:48.731Z,5.5
2023-07-03T05:33:54.582Z,7.2
2023-07-03T05:34:59.329Z,7.5
2023-07-03T05:36:04.149Z,5.6
2023-07-03T05:37:08.905Z,5.9
2023-07-03T05:38:13.704Z,6.2
2023-07-03T05:39:18.566Z,6.1
2023-07-03T05:40:24.184Z,6.3
2023-07-03T05:41:29.107Z,6.4
2023-07-03T05:42:33.939Z,7.3
2023-07-03T05:43:38.725Z,7.3
2023-07-03T05:44:43.572Z,5.6
2023-07-03T05:45:48.849Z,6.7
2023-07-03T05:46:53.374Z,6.1
2023-07-03T05:47:59.744Z,7.3
2023-07-03T05:49:04.428Z,6.1
2023-07-03T05:50:10.232Z,15.4
2023-07-03T05:51:17.569Z,5.4
2023-07-03T05:52:22.525Z,7.2
2023-07-03T05:53:28.323Z,6.4
2023-07-03T05:54:33.121Z,7.6
2023-07-03T05:55:38.008Z,5.7
2023-07-03T05:56:42.861Z,6.7
2023-07-03T05:57:47.620Z,7.1
2023-07-03T05:58:52.376Z,7
2023-07-03T05:59:57.181Z,7.7
2023-07-03T06:01:02.128Z,7.9
2023-07-03T06:02:06.773Z,8.2
2023-07-03T06:03:16.644Z,7.4
2023-07-03T06:04:20.587Z,6.5
2023-07-03T06:05:25.282Z,8.7
2023-07-03T06:06:30.145Z,8.6
2023-07-03T06:07:34.825Z,8.2
2023-07-03T06:08:39.731Z,7.2
2023-07-03T06:09:44.508Z,8.1
2023-07-03T06:10:51.373Z,10
2023-07-03T06:11:57.382Z,7
2023-07-03T06:13:02.143Z,7.3
2023-07-03T06:14:06.908Z,8.3
2023-07-03T06:15:16.767Z,9.3
2023-07-03T06:16:21.586Z,8.9
2023-07-03T06:17:26.378Z,9.2
2023-07-03T06:18:31.086Z,9
2023-07-03T06:19:36.086Z,6.6
2023-07-03T06:20:40.994Z,8.6
2023-07-03T06:21:45.817Z,7.5
2023-07-03T06:22:50.555Z,8.8
2023-07-03T06:23:55.548Z,7.9
2023-07-03T06:25:00.376Z,9.7
2023-07-03T06:26:05.105Z,9.6
2023-07-03T06:27:10.970Z,9.7
2023-07-03T06:28:16.615Z,7.8
2023-07-03T06:29:21.420Z,6.8
2023-07-03T06:30:26.100Z,9.6
2023-07-03T06:31:30.859Z,11.8
2023-07-03T06:32:36.740Z,9.4
2023-07-03T06:33:41.754Z,9
2023-07-03T06:34:46.408Z,7.4
2023-07-03T06:35:51.388Z,8.9
2023-07-03T06:36:57.170Z,8.9
2023-07-03T06:38:02.161Z,7.3
2023-07-03T06:39:08.123Z,8.2
2023-07-03T06:40:12.834Z,10.1
2023-07-03T06:41:17.572Z,8.8
2023-07-03T06:42:23.415Z,10.5
2023-07-03T06:43:29.226Z,8.5
2023-07-03T06:44:33.948Z,8.1
2023-07-03T06:45:38.790Z,8.1
2023-07-03T06:46:44.566Z,8.8
2023-07-03T06:47:49.711Z,8.2
2023-07-03T06:48:55.508Z,7.1
2023-07-03T06:50:00.293Z,8.1
2023-07-03T06:51:05.220Z,10.2
2023-07-03T06:52:10.085Z,9
2023-07-03T06:53:14.728Z,7.7
2023-07-03T06:54:19.456Z,10.3
2023-07-03T06:55:24.173Z,9.4
2023-07-03T06:56:28.959Z,9.9
2023-07-03T06:57:34.888Z,10.9
2023-07-03T06:58:41.789Z,10.2
2023-07-03T06:59:47.419Z,12.4
2023-07-03T07:00:52.300Z,9
2023-07-03T07:01:57.116Z,8
2023-07-03T07:03:02.746Z,8.7
2023-07-03T07:04:07.687Z,10
2023-07-03T07:05:12.461Z,8.6
2023-07-03T07:06:20.275Z,7.1
2023-07-03T07:07:26.535Z,9.4
2023-07-03T07:08:31.391Z,7.9
2023-07-03T07:09:36.421Z,7.9
2023-07-03T07:10:42.327Z,8.1
2023-07-03T07:11:47.249Z,8
2023-07-03T07:12:52.229Z,8.4
2023-07-03T07:13:57.424Z,9.4
2023-07-03T07:15:02.209Z,9.3
2023-07-03T07:16:07.288Z,8.5
2023-07-03T07:17:17.208Z,11
2023-07-03T07:18:22.076Z,11.3
2023-07-03T07:19:26.798Z,11.8
2023-07-03T07:20:34.224Z,11.6
2023-07-03T07:21:41.761Z,13
2023-07-03T07:22:47.751Z,11
2023-07-03T07:23:53.186Z,9.7
2023-07-03T07:24:58.356Z,10
2023-07-03T07:26:03.380Z,10.5
2023-07-03T07:27:08.109Z,9.8
2023-07-03T07:28:12.875Z,12.2
2023-07-03T07:29:17.626Z,11
2023-07-03T07:30:22.401Z,12.7
2023-07-03T07:31:28.007Z,12.6
2023-07-03T07:32:32.691Z,13.8
2023-07-03T07:33:37.561Z,13.5
2023-07-03T07:34:43.293Z,12.8
2023-07-03T07:35:48.112Z,11.6
2023-07-03T07:36:53.663Z,12.9
2023-07-03T07:37:58.698Z,12.4
2023-07-03T07:39:03.438Z,13.5
2023-07-03T07:40:08.248Z,13.1
2023-07-03T07:41:13.197Z,12.2
2023-07-03T07:42:19.200Z,11.7
2023-07-03T07:43:24.811Z,14.4
2023-07-03T07:44:31.540Z,12.3
2023-07-03T07:45:37.645Z,11.9
2023-07-03T07:46:42.461Z,11.7
2023-07-03T07:47:47.242Z,12.2
2023-07-03T07:48:53.217Z,12
2023-07-03T07:49:59.052Z,12.7
2023-07-03T07:51:04.014Z,12
2023-07-03T07:52:11.696Z,14.1
2023-07-03T07:53:16.595Z,11.8
2023-07-03T07:54:21.297Z,12.4
2023-07-03T07:55:26.125Z,12.3
2023-07-03T07:56:34.141Z,13.7
2023-07-03T07:57:37.197Z,12.9
2023-07-03T07:58:42.083Z,13.2
2023-07-03T07:59:46.921Z,13.2
2023-07-03T08:00:52.934Z,20.7
2023-07-03T08:01:58.854Z,14.4
2023-07-03T08:03:09.378Z,15.5
2023-07-03T08:04:12.629Z,13.2
2023-07-03T08:05:17.397Z,13.9
2023-07-03T08:06:22.445Z,13.6
2023-07-03T08:07:27.260Z,14.8
2023-07-03T08:08:32.130Z,13.3
2023-07-03T08:09:36.920Z,15.2
2023-07-03T08:10:41.746Z,17.2
2023-07-03T08:11:46.824Z,15.5
2023-07-03T08:12:51.507Z,18.1
2023-07-03T08:13:56.260Z,20.3
2023-07-03T08:15:01.109Z,14.9
2023-07-03T08:16:06.183Z,13.5
2023-07-03T08:17:11.026Z,13.7
2023-07-03T08:18:15.735Z,15.2
2023-07-03T08:19:20.632Z,14.9
2023-07-03T08:20:25.462Z,15.2
2023-07-03T08:21:30.206Z,13.5
2023-07-03T08:22:34.921Z,17
2023-07-03T08:23:41.068Z,17.7
2023-07-03T08:24:45.751Z,14.8
2023-07-03T08:25:50.780Z,17.5
2023-07-03T08:26:56.381Z,15.2
2023-07-03T08:28:01.269Z,14.1
2023-07-03T08:29:06.342Z,16.1
2023-07-03T08:30:11.186Z,14.6
2023-07-03T08:31:16.361Z,15.1
2023-07-03T08:32:22.316Z,14.9
2023-07-03T08:33:27.203Z,14.9
2023-07-03T08:34:33.386Z,16.3
2023-07-03T08:37:47.360Z,14.8
2023-07-03T08:38:52.141Z,15.1
2023-07-03T08:39:56.992Z,16
2023-07-03T08:41:02.117Z,16.1
2023-07-03T08:42:06.969Z,16.1
2023-07-03T08:43:14.498Z,17.8
2023-07-03T08:44:19.354Z,17.3
2023-07-03T08:45:24.201Z,15.1
2023-07-03T08:46:29.164Z,16.1
2023-07-03T08:47:33.920Z,16.1
2023-07-03T08:48:38.606Z,17
2023-07-03T08:49:43.461Z,16.1
2023-07-03T08:50:48.240Z,14.5
2023-07-03T08:51:53.049Z,16.2
2023-07-03T08:52:57.852Z,15.5
2023-07-03T08:54:05.488Z,17.4
2023-07-03T08:55:10.144Z,17.1
2023-07-03T08:56:16.103Z,16.9
2023-07-03T08:57:20.835Z,16.6
2023-07-03T08:58:25.763Z,17.3
2023-07-03T08:59:30.570Z,17.1
2023-07-03T09:00:35.538Z,16.2
2023-07-03T09:01:40.350Z,16.7
2023-07-03T09:02:55.367Z,16.6
2023-07-03T09:04:08.789Z,14.5
2023-07-03T09:05:23.399Z,18.1
2023-07-03T09:06:34.170Z,15.2
2023-07-03T09:07:43.949Z,16.2
2023-07-03T09:08:48.809Z,17.8
2023-07-03T09:10:01.528Z,16.7
2023-07-03T09:11:13.889Z,16.8
2023-07-03T09:12:18.870Z,15.9
2023-07-03T09:13:23.692Z,17.6
2023-07-03T09:14:28.503Z,14.7
2023-07-03T09:15:34.373Z,15.5
2023-07-03T09:16:41.979Z,29.6
2023-07-03T09:17:46.857Z,18
2023-07-03T09:18:51.762Z,20.7
2023-07-03T09:19:59.464Z,17
2023-07-03T09:21:04.346Z,25.5
2023-07-03T09:22:09.141Z,15.7
2023-07-03T09:23:13.940Z,45.6
2023-07-03T09:24:22.322Z,20.7
2023-07-03T09:25:26.584Z,18.6
2023-07-03T09:26:31.324Z,15.9
2023-07-03T09:27:42.604Z,15.2
2023-07-03T09:28:48.382Z,15.6
2023-07-03T09:29:52.504Z,16.2
2023-07-03T09:31:01.952Z,18.8
2023-07-03T09:32:05.267Z,14.9
2023-07-03T09:33:10.089Z,13.9
2023-07-03T09:34:14.927Z,15.1
2023-07-03T09:35:19.499Z,16.6
2023-07-03T09:36:24.560Z,20.9
2023-07-03T09:37:31.890Z,14.4
2023-07-03T09:38:39.476Z,15
2023-07-03T09:39:44.733Z,15.9
2023-07-03T09:40:49.222Z,16.7
2023-07-03T09:41:56.337Z,16
2023-07-03T09:43:09.130Z,14.5
2023-07-03T09:44:20.066Z,16.3
2023-07-03T09:45:23.764Z,14.6
2023-07-03T09:46:28.602Z,16.7
2023-07-03T09:47:33.368Z,15.7
2023-07-03T09:48:38.336Z,14.4
2023-07-03T09:49:43.232Z,17.8
2023-07-03T09:51:01.751Z,18.4
2023-07-03T09:51:52.607Z,15.8
2023-07-03T09:53:07.225Z,15.2
2023-07-03T09:54:03.279Z,15.6
2023-07-03T09:55:10.936Z,11.5
2023-07-03T09:56:16.042Z,14.2
2023-07-03T09:57:21.687Z,15.5
2023-07-03T09:58:26.371Z,14.8
2023-07-03T09:59:31.265Z,15.1
2023-07-03T10:00:36.249Z,15.4
2023-07-03T10:03:52.067Z,13.6
2023-07-03T10:07:26.141Z,14.4
2023-07-03T10:08:31.560Z,16
2023-07-03T10:11:45.625Z,13.8
2023-07-03T10:12:50.659Z,18.5
2023-07-03T10:14:03.033Z,13.3
2023-07-03T10:15:08.036Z,12.7
2023-07-03T10:16:17.998Z,14.5
2023-07-03T10:17:23.699Z,15.2
2023-07-03T10:18:38.669Z,13.5
2023-07-03T10:19:43.441Z,13.4
2023-07-03T10:20:48.210Z,14.6
2023-07-03T10:21:53.293Z,16.6
2023-07-03T10:22:58.172Z,15.7
2023-07-03T10:24:03.012Z,14.4
2023-07-03T10:25:07.953Z,14.4
2023-07-03T10:26:12.840Z,13.3
2023-07-03T10:27:23.860Z,13.7
2023-07-03T10:28:29.521Z,14.9
2023-07-03T10:29:37.100Z,13.9
2023-07-03T10:30:44.907Z,14.3
2023-07-03T10:31:49.756Z,14.4
2023-07-03T10:32:59.877Z,14
2023-07-03T10:34:04.640Z,16.9
2023-07-03T10:35:09.474Z,17.1
2023-07-03T10:36:14.213Z,13.1
2023-07-03T10:37:19.027Z,14
2023-07-03T10:38:23.915Z,15.1
2023-07-03T10:39:31.682Z,12.6
2023-07-03T10:40:36.253Z,16.6
2023-07-03T10:41:46.137Z,15.5
2023-07-03T10:42:51.666Z,14
2023-07-03T10:43:59.284Z,14.3
2023-07-03T10:45:09.287Z,15.2
2023-07-03T10:46:14.261Z,12.3
2023-07-03T10:47:19.122Z,13.9
2023-07-03T10:48:34.066Z,13.9
2023-07-03T10:49:38.841Z,14.2
2023-07-03T10:50:43.567Z,13.7
2023-07-03T10:51:53.426Z,16.7
2023-07-03T10:52:58.434Z,13.2
2023-07-03T10:54:03.407Z,14.9
2023-07-03T10:55:14.088Z,17.7
2023-07-03T10:56:26.974Z,14.8
2023-07-03T10:57:39.726Z,14.5
2023-07-03T10:58:49.781Z,12.2
2023-07-03T11:00:00.732Z,15.2
2023-07-03T11:01:05.672Z,13
2023-07-03T11:02:10.591Z,14.5
2023-07-03T11:03:23.294Z,15.2
2023-07-03T11:04:36.294Z,15.1
2023-07-03T11:05:46.116Z,13.3
2023-07-03T11:06:51.976Z,12.9
2023-07-03T11:08:01.817Z,13.7
2023-07-03T11:09:10.915Z,13.2
2023-07-03T11:10:15.740Z,16.7
2023-07-03T11:11:28.537Z,15.2
2023-07-03T11:12:38.859Z,12.8
2023-07-03T11:13:53.980Z,13.8
2023-07-03T11:15:03.608Z,16.4
2023-07-03T11:16:13.184Z,11.6
2023-07-03T11:17:17.982Z,13.1
2023-07-03T11:23:13.651Z,13.2
2023-07-03T11:24:23.517Z,13.7
2023-07-03T11:25:33.431Z,13.9
2023-07-03T11:29:01.335Z,12.6
2023-07-03T11:30:07.260Z,13.8
2023-07-03T11:31:12.123Z,13
2023-07-03T11:32:16.869Z,16.8
2023-07-03T11:33:22.888Z,11.7
2023-07-03T11:36:43.481Z,14.5
2023-07-03T11:39:51.731Z,13.5
2023-07-03T11:40:56.450Z,14.6
2023-07-03T11:44:19.838Z,14.2
2023-07-03T11:45:32.624Z,13.4
2023-07-03T11:46:37.544Z,13.8
2023-07-03T11:47:42.407Z,15.9
2023-07-03T11:48:48.471Z,12.8
2023-07-03T11:49:53.301Z,15.2
2023-07-03T11:51:04.196Z,14
2023-07-03T11:52:09.239Z,17.2
2023-07-03T11:53:17.045Z,14
2023-07-03T11:54:32.054Z,21.3
2023-07-03T11:55:36.855Z,13.4
2023-07-03T11:56:41.731Z,15.4
2023-07-03T11:57:49.927Z,17
2023-07-03T11:58:51.379Z,15.1
2023-07-03T11:59:56.306Z,14.2
2023-07-03T12:01:11.208Z,15.1
2023-07-03T12:02:26.146Z,18.4
2023-07-03T12:03:31.357Z,14.8
2023-07-03T12:04:48.984Z,17.4
2023-07-03T12:05:54.868Z,18.9
2023-07-03T12:06:59.773Z,16.8
2023-07-03T12:08:04.594Z,16
2023-07-03T12:09:15.876Z,15.2
2023-07-03T12:10:25.653Z,16.3
2023-07-03T12:11:33.329Z,13.3
2023-07-03T12:12:38.105Z,11.6
2023-07-03T12:13:43.102Z,13.6
2023-07-03T12:14:47.627Z,11.9
2023-07-03T12:15:57.426Z,10.9
2023-07-03T12:17:02.332Z,12
2023-07-03T12:18:07.122Z,12.9
2023-07-03T12:19:11.922Z,15.4
2023-07-03T12:20:16.745Z,10.5
2023-07-03T12:21:21.670Z,13.5
2023-07-03T12:22:26.424Z,11.8
2023-07-03T12:23:31.169Z,12.3
2023-07-03T12:24:43.518Z,11.9
2023-07-03T12:25:48.355Z,12.3
2023-07-03T12:26:53.349Z,11
2023-07-03T12:27:58.392Z,13.6
2023-07-03T12:29:10.915Z,13.2
2023-07-03T12:30:15.727Z,12.7
2023-07-03T12:31:23.427Z,12.6
2023-07-03T12:32:28.049Z,14.4
2023-07-03T12:33:33.920Z,12
2023-07-03T12:34:38.938Z,11.3
2023-07-03T12:35:45.348Z,11.7
2023-07-03T12:36:54.166Z,13.3
2023-07-03T12:37:54.932Z,12.1
2023-07-03T12:39:02.626Z,11.7
2023-07-03T12:40:15.440Z,13.1
2023-07-03T12:41:20.234Z,10.8
2023-07-03T12:42:30.155Z,10.1
2023-07-03T12:43:34.912Z,14.6
2023-07-03T12:44:39.692Z,13.5
2023-07-03T12:45:44.418Z,11.5
2023-07-03T12:46:54.236Z,12.7
2023-07-03T12:48:01.193Z,10.2
2023-07-03T12:49:05.881Z,13.8
2023-07-03T12:50:18.582Z,10.6
2023-07-03T12:51:23.331Z,14.3
2023-07-03T12:52:28.137Z,11.1
2023-07-03T12:53:33.006Z,11.5
2023-07-03T12:54:37.727Z,10.7
2023-07-03T12:55:42.440Z,10.8
2023-07-03T12:56:47.188Z,11.1
2023-07-03T12:57:54.800Z,10.2
2023-07-03T12:58:59.597Z,11
2023-07-03T13:00:04.429Z,12.6
2023-07-03T13:01:09.618Z,10.9
2023-07-03T13:02:14.341Z,11.7
2023-07-03T13:03:28.297Z,11
2023-07-03T13:04:33.323Z,10.5
2023-07-03T13:05:38.118Z,11
2023-07-03T13:06:42.887Z,11.4
2023-07-03T13:07:47.697Z,11.5
2023-07-03T13:08:52.444Z,9.8
2023-07-03T13:09:57.296Z,10.9
2023-07-03T13:11:02.169Z,10.8
2023-07-03T13:12:06.960Z,9.9
2023-07-03T13:13:19.849Z,11.9
2023-07-03T13:14:24.747Z,11.1
2023-07-03T13:15:29.592Z,10.9
2023-07-03T13:16:38.549Z,10
2023-07-03T13:17:43.438Z,12
2023-07-03T13:18:48.186Z,9.9
2023-07-03T13:20:01.981Z,10.9
2023-07-03T13:21:17.133Z,10.4
2023-07-03T13:22:21.799Z,12.2
2023-07-03T13:23:26.600Z,11.2
2023-07-03T13:24:36.352Z,13.4
2023-07-03T13:25:46.114Z,13.3
2023-07-03T13:26:53.620Z,12.1
2023-07-03T13:27:58.351Z,12.6
2023-07-03T13:29:03.134Z,10
2023-07-03T13:30:09.610Z,10.9
2023-07-03T13:31:21.642Z,10
2023-07-03T13:32:26.562Z,11.4
2023-07-03T13:33:31.514Z,13.2
2023-07-03T13:34:36.270Z,11
2023-07-03T13:35:41.038Z,11.9
2023-07-03T13:36:45.836Z,12.5
2023-07-03T13:37:55.857Z,11.3
2023-07-03T13:39:10.727Z,11.4
2023-07-03T13:40:18.470Z,9.9
2023-07-03T13:41:23.218Z,10.3
2023-07-03T13:42:27.965Z,11.5
2023-07-03T13:43:32.867Z,11
2023-07-03T13:44:38.726Z,13.3
2023-07-03T13:45:45.387Z,11.3
2023-07-03T13:46:50.162Z,13.7
2023-07-03T13:47:54.903Z,13.5
2023-07-03T13:48:59.681Z,11.8
2023-07-03T13:50:05.901Z,12.3
2023-07-03T13:51:12.482Z,10.6
2023-07-03T13:52:17.336Z,11.9
2023-07-03T13:53:22.103Z,11.3
2023-07-03T13:54:26.986Z,11.9
2023-07-03T13:55:31.902Z,10.3
2023-07-03T13:56:36.698Z,10.8
2023-07-03T13:57:41.561Z,11.4
2023-07-03T13:58:46.630Z,10.9
2023-07-03T13:59:51.534Z,10.8
2023-07-03T14:00:56.417Z,9.9
2023-07-03T14:02:01.359Z,12.5
2023-07-03T14:03:06.670Z,13.5
2023-07-03T14:04:11.786Z,11.5
2023-07-03T14:05:17.500Z,10.2
2023-07-03T14:06:22.296Z,12.4
2023-07-03T14:07:27.222Z,12.6
2023-07-03T14:08:32.096Z,10.2
2023-07-03T14:09:38.096Z,10.3
2023-07-03T14:10:42.849Z,10.8
2023-07-03T14:11:48.960Z,9
2023-07-03T14:12:53.876Z,14
2023-07-03T14:13:58.761Z,15.2
2023-07-03T14:15:04.725Z,12.4
2023-07-03T14:16:17.650Z,10.1
2023-07-03T14:17:22.523Z,10.7
2023-07-03T14:18:28.149Z,10.4
2023-07-03T14:19:33.309Z,10
2023-07-03T14:20:38.093Z,15
2023-07-03T14:21:42.845Z,13.6
2023-07-03T14:22:47.544Z,12.8
2023-07-03T14:23:52.378Z,13.2
2023-07-03T14:24:57.165Z,10.4
2023-07-03T14:26:02.541Z,9.5
2023-07-03T14:27:07.272Z,12.4
2023-07-03T14:28:12.082Z,13.9
2023-07-03T14:29:16.985Z,17.8
2023-07-03T14:30:22.771Z,20
2023-07-03T14:31:27.550Z,11.3
2023-07-03T14:32:44.273Z,12.4
2023-07-03T14:33:37.206Z,10.5
2023-07-03T14:34:42.060Z,10.9
2023-07-03T14:35:46.981Z,11.8
2023-07-03T14:36:51.828Z,27.7
2023-07-03T14:37:56.672Z,18
2023-07-03T14:39:01.391Z,18.2
2023-07-03T14:40:07.370Z,30.1
2023-07-03T14:41:12.393Z,18.9
2023-07-03T14:42:17.108Z,9.9
2023-07-03T14:43:22.915Z,12.9
2023-07-03T14:44:27.699Z,11.8
2023-07-03T14:45:33.777Z,13.3
2023-07-03T14:46:38.716Z,12.7
2023-07-03T14:47:43.408Z,13.2
2023-07-03T14:48:48.133Z,13.4
2023-07-03T14:49:52.990Z,13.5
2023-07-03T14:50:58.858Z,13.6
2023-07-03T14:52:04.621Z,12.4
2023-07-03T14:53:09.562Z,12.4
2023-07-03T14:54:14.298Z,9.8
2023-07-03T14:55:19.086Z,12.6
2023-07-03T14:56:24.099Z,10.8
2023-07-03T14:57:28.806Z,11.2
2023-07-03T14:58:33.498Z,10.4
2023-07-03T14:59:38.256Z,13.8
2023-07-03T15:00:43.034Z,10
2023-07-03T15:01:47.795Z,9.9
2023-07-03T15:02:52.597Z,10.7
2023-07-03T15:03:57.503Z,12.9
2023-07-03T15:05:02.214Z,13.5
2023-07-03T15:06:06.986Z,10.3
2023-07-03T15:07:11.736Z,10.1
2023-07-03T15:08:16.605Z,10.3
2023-07-03T15:09:21.321Z,11.8
2023-07-03T15:10:26.862Z,11.3
2023-07-03T15:11:31.755Z,12
2023-07-03T15:12:36.533Z,12.5
2023-07-03T15:13:41.257Z,13.1
2023-07-03T15:14:46.148Z,11.4
2023-07-03T15:15:51.533Z,10.6